createdAt,value
2023-04-26T05:03:12.577Z,38.26
2023-04-26T05:04:13.578Z,38.26
2023-04-26T05:05:12.579Z,38.27
2023-04-26T05:06:13.447Z,38.32
2023-04-26T05:07:13.488Z,38.35
2023-04-26T05:08:13.490Z,38.29
2023-04-26T05:09:12.600Z,38.32
2023-04-26T05:10:13.595Z,38.28
2023-04-26T05:11:13.643Z,38.27
2023-04-26T05:12:13.668Z,38.27
2023-04-26T05:13:12.666Z,38.30
2023-04-26T05:14:12.668Z,38.29
2023-04-26T05:15:13.675Z,38.29
2023-04-26T05:16:13.732Z,38.27
2023-04-26T05:17:13.721Z,38.29
2023-04-26T05:18:13.745Z,38.26
2023-04-26T05:19:12.710Z,38.27
2023-04-26T05:20:13.691Z,38.27
2023-04-26T05:21:13.692Z,38.30
2023-04-26T05:22:13.696Z,38.26
2023-04-26T05:23:13.757Z,38.26
2023-04-26T05:24:13.694Z,38.26
2023-04-26T05:25:13.704Z,38.32
2023-04-26T05:26:13.707Z,38.27
2023-04-26T05:27:12.713Z,38.27
2023-04-26T05:28:13.705Z,38.24
2023-04-26T05:29:12.727Z,38.24
2023-04-26T05:30:13.690Z,38.27
2023-04-26T05:31:13.698Z,38.27
2023-04-26T05:32:12.751Z,38.28
2023-04-26T05:33:13.774Z,38.22
2023-04-26T05:34:13.679Z,38.24
2023-04-26T05:35:12.730Z,38.22
2023-04-26T05:36:13.695Z,38.24
2023-04-26T05:37:13.675Z,38.21
2023-04-26T05:38:13.677Z,38.19
2023-04-26T05:39:13.685Z,38.21
2023-04-26T05:40:13.679Z,38.24
2023-04-26T05:41:12.666Z,38.19
2023-04-26T05:42:15.153Z,38.19
2023-04-26T05:43:12.681Z,38.21
2023-04-26T05:44:12.678Z,38.22
2023-04-26T05:45:13.657Z,38.19
2023-04-26T05:46:13.681Z,38.22
2023-04-26T05:47:12.645Z,38.19
2023-04-26T05:48:12.772Z,38.24
2023-04-26T05:49:13.630Z,38.19
2023-04-26T05:50:13.711Z,38.22
2023-04-26T05:51:13.627Z,38.20
2023-04-26T05:52:12.614Z,38.18
2023-04-26T05:53:12.602Z,38.14
2023-04-26T05:54:12.590Z,38.15
2023-04-26T05:55:13.602Z,38.14
2023-04-26T05:56:13.619Z,38.11
2023-04-26T05:57:12.642Z,38.14
2023-04-26T05:58:13.573Z,38.14
2023-04-26T05:59:13.551Z,38.08
2023-04-26T06:00:13.559Z,38.15
2023-04-26T06:01:13.536Z,38.09
2023-04-26T06:02:13.618Z,38.09
2023-04-26T06:03:14.085Z,38.10
2023-04-26T06:04:13.726Z,38.08
2023-04-26T06:05:13.634Z,38.04
2023-04-26T06:06:13.519Z,38.08
2023-04-26T06:07:13.550Z,38.04
2023-04-26T06:08:13.487Z,38.05
2023-04-26T06:09:12.534Z,38.08
2023-04-26T06:10:13.487Z,38.10
2023-04-26T06:11:12.474Z,38.08
2023-04-26T06:12:13.482Z,38.06
2023-04-26T06:13:13.469Z,37.99
2023-04-26T06:14:28.905Z,38.01
2023-04-26T06:15:13.441Z,38.02
2023-04-26T06:16:13.499Z,38.03
2023-04-26T06:17:12.463Z,38.05
2023-04-26T06:18:13.521Z,38.01
2023-04-26T06:19:12.435Z,38.01
2023-04-26T06:20:12.407Z,38.04
2023-04-26T06:21:13.413Z,37.97
2023-04-26T06:22:13.452Z,38.00
2023-04-26T06:23:12.423Z,37.97
2023-04-26T06:24:13.387Z,38.01
2023-04-26T06:25:13.385Z,37.95
2023-04-26T06:26:12.388Z,37.97
2023-04-26T06:27:13.385Z,38.00
2023-04-26T06:28:13.415Z,37.94
2023-04-26T06:29:13.358Z,37.98
2023-04-26T06:30:12.368Z,37.96
2023-04-26T06:31:12.410Z,37.94
2023-04-26T06:32:13.449Z,38.03
2023-04-26T06:33:13.361Z,38.00
2023-04-26T06:34:14.373Z,37.98
2023-04-26T06:35:13.342Z,37.95
2023-04-26T06:36:12.304Z,38.00
2023-04-26T06:37:13.306Z,37.97
2023-04-26T06:38:13.310Z,37.99
2023-04-26T06:39:13.309Z,37.96
2023-04-26T06:40:13.294Z,37.97
2023-04-26T06:41:13.288Z,37.96
2023-04-26T06:42:12.266Z,37.97
2023-04-26T06:43:13.293Z,38.02
2023-04-26T06:44:13.246Z,38.02
2023-04-26T06:45:13.271Z,38.01
2023-04-26T06:46:13.248Z,37.96
2023-04-26T06:47:13.268Z,37.97
2023-04-26T06:48:13.226Z,37.99
2023-04-26T06:49:13.225Z,37.97
2023-04-26T06:50:12.241Z,38.00
2023-04-26T06:51:13.253Z,37.98
2023-04-26T06:52:13.225Z,38.00
2023-04-26T06:53:12.378Z,37.97
2023-04-26T06:54:13.238Z,37.99
2023-04-26T06:55:12.292Z,38.04
2023-04-26T06:56:13.252Z,37.99
2023-04-26T06:57:13.283Z,38.03
2023-04-26T06:58:13.390Z,37.94
2023-04-26T06:59:13.291Z,37.99
2023-04-26T07:00:13.405Z,37.96
2023-04-26T07:01:13.366Z,37.97
2023-04-26T07:02:13.350Z,37.96
2023-04-26T07:03:13.427Z,37.92
2023-04-26T07:04:13.444Z,37.99
2023-04-26T07:05:13.534Z,37.99
2023-04-26T07:06:13.335Z,37.94
2023-04-26T07:07:13.854Z,37.97
2023-04-26T07:08:12.335Z,37.97
2023-04-26T07:09:13.308Z,37.95
2023-04-26T07:10:13.289Z,37.94
2023-04-26T07:11:12.318Z,37.93
2023-04-26T07:12:12.284Z,37.90
2023-04-26T07:13:13.282Z,37.93
2023-04-26T07:14:13.302Z,37.93
2023-04-26T07:15:13.257Z,37.86
2023-04-26T07:16:13.312Z,37.89
2023-04-26T07:17:13.256Z,37.92
2023-04-26T07:18:13.273Z,37.90
2023-04-26T07:19:13.246Z,37.98
2023-04-26T07:20:13.280Z,37.92
2023-04-26T07:21:13.244Z,37.92
2023-04-26T07:22:13.413Z,37.83
2023-04-26T07:23:12.214Z,37.90
2023-04-26T07:24:13.207Z,37.89
2023-04-26T07:25:12.195Z,37.88
2023-04-26T07:26:13.232Z,37.88
2023-04-26T07:27:12.205Z,37.89
2023-04-26T07:28:12.186Z,37.93
2023-04-26T07:29:13.180Z,37.88
2023-04-26T07:30:12.173Z,37.88
2023-04-26T07:31:13.158Z,37.86
2023-04-26T07:32:13.216Z,37.86
2023-04-26T07:33:13.265Z,37.88
2023-04-26T07:34:13.146Z,37.84
2023-04-26T07:35:13.129Z,37.87
2023-04-26T07:36:13.119Z,37.90
2023-04-26T07:37:12.115Z,37.83
2023-04-26T07:38:13.146Z,37.89
2023-04-26T07:39:12.115Z,37.83
2023-04-26T07:40:12.095Z,37.88
2023-04-26T07:41:13.145Z,37.90
2023-04-26T07:42:13.092Z,37.87
2023-04-26T07:43:13.170Z,37.89
2023-04-26T07:44:13.071Z,37.92
2023-04-26T07:45:13.125Z,37.89
2023-04-26T07:46:12.124Z,37.89
2023-04-26T07:47:13.064Z,37.88
2023-04-26T07:48:13.533Z,37.89
2023-04-26T07:49:13.037Z,37.84
2023-04-26T07:50:12.016Z,37.99
2023-04-26T07:51:13.063Z,38.00
2023-04-26T07:52:13.004Z,37.95
2023-04-26T07:53:13.422Z,38.99
2023-04-26T07:54:13.046Z,38.50
2023-04-26T07:55:12.061Z,38.21
2023-04-26T07:56:13.114Z,38.16
2023-04-26T07:57:13.038Z,38.17
2023-04-26T07:58:13.134Z,38.67
2023-04-26T07:59:13.142Z,38.87
2023-04-26T08:00:13.113Z,38.37
2023-04-26T08:01:12.152Z,38.26
2023-04-26T08:02:13.464Z,38.25
2023-04-26T08:03:12.449Z,38.27
2023-04-26T08:04:13.499Z,38.26
2023-04-26T08:05:13.630Z,38.25
2023-04-26T08:06:13.506Z,38.16
2023-04-26T08:07:13.430Z,38.28
2023-04-26T08:08:13.494Z,38.48
2023-04-26T08:09:12.534Z,38.47
2023-04-26T08:10:12.612Z,38.44
2023-04-26T08:11:13.649Z,38.49
2023-04-26T08:12:13.904Z,38.39
2023-04-26T08:13:13.785Z,38.45
2023-04-26T08:14:13.849Z,38.42
2023-04-26T08:15:13.031Z,38.54
2023-04-26T08:16:14.024Z,38.47
2023-04-26T08:17:14.056Z,38.46
2023-04-26T08:18:14.092Z,38.39
2023-04-26T08:19:14.156Z,38.39
2023-04-26T08:20:14.197Z,38.29
2023-04-26T08:21:14.290Z,38.30
2023-04-26T08:22:13.305Z,38.30
2023-04-26T08:23:14.408Z,38.36
2023-04-26T08:24:14.493Z,38.40
2023-04-26T08:25:14.511Z,38.46
2023-04-26T08:26:13.573Z,38.43
2023-04-26T08:27:14.592Z,38.49
2023-04-26T08:28:14.632Z,38.49
2023-04-26T08:29:14.718Z,38.45
2023-04-26T08:30:14.749Z,38.64
2023-04-26T08:31:16.990Z,38.62
2023-04-26T08:32:14.790Z,38.59
2023-04-26T08:33:14.807Z,38.69
2023-04-26T08:34:14.791Z,38.67
2023-04-26T08:35:14.789Z,38.58
2023-04-26T08:36:13.808Z,38.60
2023-04-26T08:37:14.776Z,38.61
2023-04-26T08:38:13.781Z,38.63
2023-04-26T08:39:13.766Z,38.71
2023-04-26T08:40:14.845Z,39.38
2023-04-26T08:41:13.752Z,39.14
2023-04-26T08:42:14.744Z,38.94
2023-04-26T08:43:13.732Z,38.82
2023-04-26T08:44:14.718Z,38.71
2023-04-26T08:45:14.724Z,38.76
2023-04-26T08:46:13.766Z,38.84
2023-04-26T08:47:14.917Z,38.84
2023-04-26T08:48:14.915Z,38.90
2023-04-26T08:49:14.693Z,38.91
2023-04-26T08:50:14.721Z,39.03
2023-04-26T08:51:13.679Z,39.03
2023-04-26T08:52:13.738Z,39.06
2023-04-26T08:53:14.666Z,39.10
2023-04-26T08:54:13.655Z,39.16
2023-04-26T08:55:14.658Z,39.22
2023-04-26T08:56:14.686Z,39.25
2023-04-26T08:57:14.661Z,39.31
2023-04-26T08:58:13.605Z,39.38
2023-04-26T08:59:15.187Z,39.34
2023-04-26T09:00:14.596Z,39.39
2023-04-26T09:01:14.702Z,39.48
2023-04-26T09:02:13.802Z,39.45
2023-04-26T09:03:14.235Z,39.51
2023-04-26T09:04:14.975Z,39.59
2023-04-26T09:05:14.998Z,39.68
2023-04-26T09:06:14.927Z,39.60
2023-04-26T09:07:15.002Z,39.60
2023-04-26T09:08:14.045Z,39.66
2023-04-26T09:09:14.121Z,39.66
2023-04-26T09:10:14.178Z,39.67
2023-04-26T09:11:15.251Z,39.70
2023-04-26T09:12:15.308Z,39.75
2023-04-26T09:13:14.454Z,39.77
2023-04-26T09:14:15.428Z,39.79
2023-04-26T09:15:14.511Z,39.75
2023-04-26T09:16:15.627Z,39.83
2023-04-26T09:17:16.434Z,39.80
2023-04-26T09:18:15.710Z,39.79
2023-04-26T09:19:15.762Z,39.80
2023-04-26T09:20:15.876Z,39.79
2023-04-26T09:21:15.856Z,39.80
2023-04-26T09:22:15.926Z,39.75
2023-04-26T09:23:16.009Z,39.83
2023-04-26T09:24:15.065Z,39.86
2023-04-26T09:25:15.148Z,39.84
2023-04-26T09:26:15.225Z,39.86
2023-04-26T09:27:16.212Z,39.91
2023-04-26T09:28:16.282Z,39.87
2023-04-26T09:29:15.332Z,39.91
2023-04-26T09:30:16.428Z,39.91
2023-04-26T09:31:16.505Z,39.94
2023-04-26T09:32:15.547Z,39.88
2023-04-26T09:33:16.629Z,39.86
2023-04-26T09:34:16.706Z,39.89
2023-04-26T09:35:16.700Z,39.90
2023-04-26T09:36:16.777Z,39.85
2023-04-26T09:37:16.833Z,39.90
2023-04-26T09:38:16.886Z,40.00
2023-04-26T09:39:16.984Z,39.88
2023-04-26T09:40:17.008Z,39.92
2023-04-26T09:41:16.085Z,39.96
2023-04-26T09:42:16.196Z,39.96
2023-04-26T09:43:16.224Z,39.92
2023-04-26T09:44:17.274Z,40.01
2023-04-26T09:45:17.319Z,39.93
2023-04-26T09:46:16.410Z,39.97
2023-04-26T09:47:17.434Z,39.95
2023-04-26T09:48:16.559Z,40.02
2023-04-26T09:49:17.950Z,40.06
2023-04-26T09:50:17.661Z,39.92
2023-04-26T09:51:17.696Z,39.96
2023-04-26T09:52:17.788Z,39.99
2023-04-26T09:53:17.830Z,39.98
2023-04-26T09:54:16.870Z,41.07
2023-04-26T09:55:31.170Z,40.97
2023-04-26T09:56:17.985Z,40.75
2023-04-26T09:57:17.889Z,40.71
2023-04-26T09:58:16.853Z,40.73
2023-04-26T09:59:16.895Z,40.96
2023-04-26T10:00:16.855Z,40.76
2023-04-26T10:01:18.017Z,40.50
2023-04-26T10:02:17.896Z,41.19
2023-04-26T10:03:16.944Z,40.79
2023-04-26T10:04:17.926Z,41.61
2023-04-26T10:05:17.816Z,40.86
2023-04-26T10:06:16.838Z,40.73
2023-04-26T10:07:17.871Z,40.95
2023-04-26T10:08:17.896Z,40.83
2023-04-26T10:09:19.007Z,40.68
2023-04-26T10:10:18.076Z,40.70
2023-04-26T10:11:18.058Z,40.79
2023-04-26T10:12:17.100Z,40.77
2023-04-26T10:13:18.218Z,40.92
2023-04-26T10:14:18.187Z,40.91
2023-04-26T10:15:18.218Z,40.84
2023-04-26T10:16:18.379Z,41.05
2023-04-26T10:17:18.300Z,40.97
2023-04-26T10:18:18.388Z,40.81
2023-04-26T10:19:17.623Z,41.15
2023-04-26T10:20:17.537Z,40.97
2023-04-26T10:21:18.475Z,41.10
2023-04-26T10:22:18.563Z,41.29
2023-04-26T10:23:18.897Z,41.33
2023-04-26T10:24:33.123Z,41.24
2023-04-26T10:25:18.692Z,41.49
2023-04-26T10:26:18.593Z,41.41
2023-04-26T10:27:17.548Z,41.49
2023-04-26T10:28:17.601Z,41.54
2023-04-26T10:29:18.575Z,41.56
2023-04-26T10:30:18.552Z,41.93
2023-04-26T10:31:17.565Z,41.89
2023-04-26T10:32:18.661Z,41.90
2023-04-26T10:33:17.597Z,41.84
2023-04-26T10:34:18.665Z,41.83
2023-04-26T10:35:17.534Z,42.09
2023-04-26T10:36:17.504Z,42.20
2023-04-26T10:37:18.504Z,42.14
2023-04-26T10:38:17.513Z,42.22
2023-04-26T10:39:18.503Z,42.35
2023-04-26T10:40:18.583Z,42.90
2023-04-26T10:41:18.472Z,43.17
2023-04-26T10:42:18.463Z,42.61
2023-04-26T10:43:18.492Z,42.59
2023-04-26T10:44:17.480Z,42.52
2023-04-26T10:45:18.451Z,42.45
2023-04-26T10:46:18.500Z,38.40
2023-04-26T10:47:18.490Z,42.04
2023-04-26T10:48:18.513Z,41.73
2023-04-26T10:49:17.424Z,41.67
2023-04-26T10:50:18.579Z,41.72
2023-04-26T10:51:18.413Z,41.50
2023-04-26T10:52:18.451Z,39.92
2023-04-26T10:53:17.443Z,40.29
2023-04-26T10:54:18.430Z,39.99
2023-04-26T10:55:18.382Z,39.31
2023-04-26T10:56:18.369Z,40.21
2023-04-26T10:57:17.390Z,38.41
2023-04-26T10:58:32.135Z,39.48
2023-04-26T10:59:36.113Z,38.08
2023-04-26T11:00:18.388Z,37.85
2023-04-26T11:01:18.418Z,38.61
2023-04-26T11:02:19.515Z,37.46
2023-04-26T11:03:17.505Z,38.38
2023-04-26T11:04:18.492Z,36.89
2023-04-26T11:05:17.349Z,37.63
2023-04-26T11:06:18.590Z,36.44
2023-04-26T11:07:18.331Z,37.35
2023-04-26T11:08:18.351Z,35.50
2023-04-26T11:09:18.341Z,36.04
2023-04-26T11:10:18.373Z,36.63
2023-04-26T11:11:19.003Z,36.16
2023-04-26T11:12:18.324Z,35.53
2023-04-26T11:13:18.289Z,34.61
2023-04-26T11:14:18.299Z,34.71
2023-04-26T11:15:20.006Z,35.30
2023-04-26T11:16:18.561Z,34.20
2023-04-26T11:17:18.548Z,34.49
2023-04-26T11:18:18.597Z,34.79
2023-04-26T11:19:17.583Z,34.61
2023-04-26T11:20:18.705Z,34.40
2023-04-26T11:21:17.768Z,33.50
2023-04-26T11:22:17.793Z,33.98
2023-04-26T11:23:18.844Z,34.14
2023-04-26T11:24:18.868Z,33.45
2023-04-26T11:25:18.930Z,32.67
2023-04-26T11:26:18.966Z,32.54
2023-04-26T11:27:18.975Z,33.65
2023-04-26T11:28:17.983Z,33.22
2023-04-26T11:29:17.996Z,33.55
2023-04-26T11:30:19.158Z,32.81
2023-04-26T11:31:19.288Z,31.12
2023-04-26T11:32:17.994Z,30.87
2023-04-26T11:33:18.042Z,31.88
2023-04-26T11:34:18.079Z,33.11
2023-04-26T11:35:19.169Z,33.16
2023-04-26T11:36:19.135Z,33.10
2023-04-26T11:37:19.131Z,33.09
2023-04-26T11:38:18.190Z,32.67
2023-04-26T11:39:18.204Z,33.07
2023-04-26T11:40:19.272Z,33.12
2023-04-26T11:41:19.317Z,33.00
2023-04-26T11:42:19.533Z,33.01
2023-04-26T11:43:18.474Z,33.25
2023-04-26T11:44:18.484Z,33.32
2023-04-26T11:45:18.510Z,33.53
2023-04-26T11:46:19.615Z,33.59
2023-04-26T11:47:19.592Z,33.69
2023-04-26T11:48:19.717Z,33.98
2023-04-26T11:49:18.654Z,33.84
2023-04-26T11:50:18.742Z,33.94
2023-04-26T11:51:19.747Z,34.04
2023-04-26T11:52:18.796Z,33.99
2023-04-26T11:53:19.830Z,34.04
2023-04-26T11:54:19.866Z,34.15
2023-04-26T11:55:18.893Z,34.31
2023-04-26T11:56:19.987Z,34.32
2023-04-26T11:57:18.971Z,34.51
2023-04-26T11:58:19.157Z,34.42
2023-04-26T11:59:20.048Z,34.43
2023-04-26T12:00:19.108Z,34.54
2023-04-26T12:01:20.152Z,34.54
2023-04-26T12:02:20.269Z,34.60
2023-04-26T12:03:20.565Z,34.60
2023-04-26T12:04:19.428Z,34.81
2023-04-26T12:05:19.385Z,34.80
2023-04-26T12:06:20.351Z,34.92
2023-04-26T12:07:19.408Z,34.88
2023-04-26T12:08:19.450Z,35.07
2023-04-26T12:09:20.512Z,35.09
2023-04-26T12:10:19.575Z,35.13
2023-04-26T12:11:19.591Z,35.23
2023-04-26T12:12:20.652Z,35.24
2023-04-26T12:13:20.699Z,35.24
2023-04-26T12:14:20.823Z,35.33
2023-04-26T12:15:20.809Z,35.47
2023-04-26T12:16:26.438Z,35.49
2023-04-26T12:17:20.958Z,35.60
2023-04-26T12:18:20.942Z,35.65
2023-04-26T12:19:19.840Z,35.75
2023-04-26T12:20:20.815Z,35.70
2023-04-26T12:21:20.843Z,35.78
2023-04-26T12:22:20.817Z,35.88
2023-04-26T12:23:20.792Z,35.95
2023-04-26T12:24:20.879Z,36.01
2023-04-26T12:25:20.802Z,36.07
2023-04-26T12:26:20.803Z,36.05
2023-04-26T12:27:20.766Z,36.09
2023-04-26T12:28:19.788Z,36.13
2023-04-26T12:29:19.783Z,36.22
2023-04-26T12:30:20.778Z,36.30
2023-04-26T12:31:20.786Z,36.31
2023-04-26T12:32:22.467Z,36.37
2023-04-26T12:33:20.846Z,36.50
2023-04-26T12:34:20.731Z,36.45
2023-04-26T12:35:20.727Z,36.54
2023-04-26T12:36:20.702Z,36.52
2023-04-26T12:37:20.716Z,36.57
2023-04-26T12:38:20.691Z,36.59
2023-04-26T12:39:20.702Z,36.60
2023-04-26T12:40:20.749Z,36.60
2023-04-26T12:41:20.699Z,36.69
2023-04-26T12:42:20.669Z,36.77
2023-04-26T12:43:20.660Z,36.77
2023-04-26T12:44:22.510Z,36.84
2023-04-26T12:45:20.646Z,36.82
2023-04-26T12:46:20.692Z,36.89
2023-04-26T12:47:20.679Z,36.91
2023-04-26T12:48:20.836Z,36.94
2023-04-26T12:49:20.634Z,36.98
2023-04-26T12:50:20.619Z,37.09
2023-04-26T12:51:20.604Z,37.03
2023-04-26T12:52:20.585Z,37.09
2023-04-26T12:53:20.587Z,37.08
2023-04-26T12:54:19.649Z,37.14
2023-04-26T12:55:19.600Z,37.18
2023-04-26T12:56:20.573Z,37.24
2023-04-26T12:57:20.576Z,37.25
2023-04-26T12:58:19.556Z,37.35
2023-04-26T12:59:20.563Z,37.35
2023-04-26T13:00:19.558Z,37.31
2023-04-26T13:01:20.680Z,37.34
2023-04-26T13:02:20.628Z,37.40
2023-04-26T13:03:20.683Z,37.51
2023-04-26T13:04:20.777Z,37.45
2023-04-26T13:05:19.517Z,37.48
2023-04-26T13:06:19.511Z,37.56
2023-04-26T13:07:20.513Z,37.57
2023-04-26T13:08:19.510Z,37.55
2023-04-26T13:09:20.522Z,37.56
2023-04-26T13:10:20.500Z,37.60
2023-04-26T13:11:20.477Z,37.59
2023-04-26T13:12:20.450Z,37.62
2023-04-26T13:13:22.051Z,37.63
2023-04-26T13:14:20.460Z,37.68
2023-04-26T13:15:20.436Z,37.75
2023-04-26T13:16:20.495Z,37.74
2023-04-26T13:17:19.443Z,37.75
2023-04-26T13:18:20.450Z,37.79
2023-04-26T13:19:20.404Z,37.78
2023-04-26T13:20:19.443Z,37.83
2023-04-26T13:21:19.414Z,37.85
2023-04-26T13:22:20.394Z,37.88
2023-04-26T13:23:20.393Z,37.83
2023-04-26T13:24:19.453Z,37.90
2023-04-26T13:25:20.377Z,37.95
2023-04-26T13:26:19.379Z,38.03
2023-04-26T13:27:20.355Z,37.98
2023-04-26T13:28:20.406Z,37.98
2023-04-26T13:29:20.336Z,37.98
2023-04-26T13:30:20.353Z,37.93
2023-04-26T13:31:20.443Z,38.02
2023-04-26T13:32:19.350Z,38.02
2023-04-26T13:33:20.341Z,38.03
2023-04-26T13:34:20.424Z,38.12
2023-04-26T13:35:20.319Z,38.14
2023-04-26T13:36:20.293Z,38.07
2023-04-26T13:37:20.046Z,38.13
2023-04-26T13:38:19.343Z,38.12
2023-04-26T13:39:20.341Z,38.15
2023-04-26T13:40:19.397Z,38.17
2023-04-26T13:41:20.412Z,38.17
2023-04-26T13:42:19.411Z,38.22
2023-04-26T13:43:19.497Z,38.24
2023-04-26T13:44:19.484Z,38.24
2023-04-26T13:45:20.536Z,38.25
2023-04-26T13:46:20.625Z,38.29
2023-04-26T13:47:19.587Z,38.33
2023-04-26T13:48:19.603Z,38.33
2023-04-26T13:49:20.607Z,38.36
2023-04-26T13:50:20.764Z,38.33
2023-04-26T13:51:19.659Z,38.31
2023-04-26T13:52:19.693Z,38.29
2023-04-26T13:53:20.724Z,38.32
2023-04-26T13:54:20.762Z,38.35
2023-04-26T13:55:20.829Z,38.33
2023-04-26T13:56:19.818Z,38.35
2023-04-26T13:57:20.829Z,38.35
2023-04-26T13:58:19.872Z,38.44
2023-04-26T13:59:19.888Z,38.38
2023-04-26T14:00:19.937Z,38.32
2023-04-26T14:01:20.057Z,38.46
2023-04-26T14:02:21.233Z,38.43
2023-04-26T14:03:21.242Z,38.47
2023-04-26T14:04:21.143Z,38.47
2023-04-26T14:05:23.425Z,38.51
2023-04-26T14:06:20.087Z,38.49
2023-04-26T14:07:21.071Z,38.49
2023-04-26T14:08:21.063Z,38.53
2023-04-26T14:09:21.085Z,38.56
2023-04-26T14:10:20.042Z,38.52
2023-04-26T14:11:21.032Z,38.52
2023-04-26T14:12:21.031Z,38.58
2023-04-26T14:13:20.020Z,38.58
2023-04-26T14:14:21.053Z,38.57
2023-04-26T14:15:21.014Z,38.68
2023-04-26T14:16:20.065Z,38.67
2023-04-26T14:17:20.995Z,38.60
2023-04-26T14:18:19.984Z,38.69
2023-04-26T14:19:20.969Z,38.67
2023-04-26T14:20:20.034Z,38.66
2023-04-26T14:21:19.984Z,38.68
2023-04-26T14:22:20.967Z,38.65
2023-04-26T14:23:20.959Z,38.65
2023-04-26T14:24:19.947Z,38.82
2023-04-26T14:25:20.105Z,38.72
2023-04-26T14:26:19.928Z,38.74
2023-04-26T14:27:19.920Z,38.70
2023-04-26T14:28:20.943Z,38.78
2023-04-26T14:29:19.912Z,38.82
2023-04-26T14:30:19.925Z,38.79
2023-04-26T14:31:20.925Z,38.76
2023-04-26T14:32:19.899Z,39.06
2023-04-26T14:33:22.097Z,39.10
2023-04-26T14:34:20.876Z,38.92
2023-04-26T14:35:20.082Z,38.82
2023-04-26T14:36:20.883Z,38.78
2023-04-26T14:37:20.931Z,38.92
2023-04-26T14:38:20.860Z,39.11
2023-04-26T14:39:21.686Z,39.52
2023-04-26T14:40:20.893Z,39.34
2023-04-26T14:42:43.153Z,39.14
2023-04-26T14:45:02.130Z,39.12
2023-04-26T14:47:18.644Z,39.23
2023-04-26T14:51:10.425Z,39.03
2023-04-26T14:53:36.870Z,39.09
2023-04-26T14:54:28.952Z,39.06
2023-04-26T14:58:19.384Z,39.32
2023-04-26T15:00:49.573Z,39.22
2023-04-26T15:03:11.375Z,39.16
2023-04-26T15:07:02.088Z,39.21
2023-04-26T15:10:56.452Z,39.21
2023-04-26T15:13:20.845Z,39.16
2023-04-26T15:16:33.689Z,39.14
2023-04-26T15:20:13.659Z,39.21
2023-04-26T15:22:38.521Z,39.16
2023-04-26T15:23:38.295Z,39.12
2023-04-26T15:25:58.589Z,39.21
2023-04-26T15:28:17.913Z,39.15
